Weather at New Hope Landing Strip [CLOSED]

Public forecast

Using degrees Fahrenheit for public forecast. Weather courtesy of forecast.io.

Closest aviation weather report (METAR) to New Hope Landing Strip

Closest report is Blythe Airport, 47.4 nm (87.9 km) W. Retrieved 2020/11/24 21:52 UTC (1 hour ago):

KBLH 242152Z AUTO 35017G21KT 10SM CLR 23/M06 A3001 RMK AO2 SLP159 T02281061

Closest aviation forecast (TAF) to New Hope Landing Strip

Closest forecast is Blythe Airport, 47.4 nm (87.9 km) W. Retrieved 2020/11/24 18:22 UTC (5 hours ago):

TAF KBLH 241720Z 2418/2518 35016KT P6SM SKC FM250000 32007KT P6SM SKC FM251500 VRB03KT P6SM SKC